Terminal Aerodrome Forecast
Issued by NWS

Home | Current Version | Previous Version | Text Only | Print | Product List | Glossary On
Versions: 1 2 3 4 5 6 7 8 9 10 11 12 13 14
587
FTUS43 KMPX 232334
TAFRNH
TAF
KRNH 232334Z 2400/2424 33005KT P6SM SCT060
     FM240300 VRB03KT P6SM OVC100
     FM240500 VRB03KT P6SM -SHRA OVC060
     FM241200 12006KT P6SM BKN060=

USA.gov is the U.S. government's official web portal to all federal, state and local government web resources and services.